createdAt,value
2019-02-15T00:01:06.110Z,3.10
2019-02-15T00:03:35.562Z,4.03
2019-02-15T00:06:04.539Z,3.77
2019-02-15T00:08:33.846Z,5.23
2019-02-15T00:11:02.919Z,3.10
2019-02-15T00:13:31.963Z,5.20
2019-02-15T00:16:01.089Z,3.03
2019-02-15T00:18:45.670Z,3.97
2019-02-15T00:21:37.037Z,4.13
2019-02-15T00:24:06.109Z,5.50
2019-02-15T00:26:35.146Z,5.27
2019-02-15T00:29:04.487Z,8.57
2019-02-15T00:31:33.551Z,4.70
2019-02-15T00:34:02.763Z,3.07
2019-02-15T00:36:32.469Z,3.00
2019-02-15T00:39:01.442Z,3.03
2019-02-15T00:41:30.666Z,4.20
2019-02-15T00:44:00.344Z,4.50
2019-02-15T00:46:51.366Z,5.07
2019-02-15T00:49:30.860Z,3.63
2019-02-15T00:52:31.219Z,3.97
2019-02-15T00:55:15.312Z,3.47
2019-02-15T00:58:21.811Z,3.33
2019-02-15T01:00:57.119Z,4.27
2019-02-15T01:03:44.505Z,3.60
2019-02-15T01:06:34.738Z,3.97
2019-02-15T01:09:28.550Z,4.67
2019-02-15T01:12:07.871Z,2.73
2019-02-15T01:14:36.935Z,3.13
2019-02-15T01:17:06.313Z,3.23
2019-02-15T01:19:35.628Z,3.33
2019-02-15T01:22:04.670Z,2.60
2019-02-15T01:24:33.664Z,2.57
2019-02-15T01:27:16.210Z,4.40
2019-02-15T01:30:16.286Z,3.17
2019-02-15T01:32:57.122Z,3.70
2019-02-15T01:35:45.270Z,2.87
2019-02-15T01:38:36.578Z,3.83
2019-02-15T01:41:17.782Z,3.10
2019-02-15T01:44:09.282Z,2.90
2019-02-15T01:46:43.746Z,4.37
2019-02-15T01:49:13.088Z,2.20
2019-02-15T01:51:42.147Z,3.20
2019-02-15T01:54:11.213Z,4.77
2019-02-15T01:56:40.538Z,3.20
2019-02-15T01:59:09.599Z,3.83
2019-02-15T02:01:38.671Z,4.30
2019-02-15T02:04:08.585Z,3.10
2019-02-15T02:06:38.195Z,2.40
2019-02-15T02:09:07.499Z,2.73
2019-02-15T02:11:36.501Z,3.67
2019-02-15T02:14:05.476Z,4.27
2019-02-15T02:16:34.577Z,4.17
2019-02-15T02:19:03.850Z,2.57
2019-02-15T02:21:32.971Z,2.43
2019-02-15T02:24:02.097Z,4.43
2019-02-15T02:26:31.453Z,3.13
2019-02-15T02:29:00.554Z,3.40
2019-02-15T02:31:29.633Z,3.00
2019-02-15T02:33:58.786Z,2.90
2019-02-15T02:36:48.421Z,2.30
2019-02-15T02:39:18.174Z,2.70
2019-02-15T02:41:47.334Z,3.43
2019-02-15T02:44:16.461Z,2.87
2019-02-15T02:46:46.332Z,4.03
2019-02-15T02:49:15.376Z,2.37
2019-02-15T02:51:44.548Z,2.67
2019-02-15T02:54:13.673Z,2.77
2019-02-15T02:56:42.797Z,3.73
2019-02-15T02:59:11.843Z,3.63
2019-02-15T03:01:40.962Z,2.87
2019-02-15T03:04:10.249Z,5.00
2019-02-15T03:06:39.929Z,4.90
2019-02-15T03:09:10.326Z,2.33
2019-02-15T03:11:39.456Z,3.13
2019-02-15T03:14:11.276Z,2.73
2019-02-15T03:16:39.484Z,2.93
2019-02-15T03:19:08.629Z,2.87
2019-02-15T03:21:37.842Z,2.73
2019-02-15T03:24:07.040Z,2.50
2019-02-15T03:26:36.251Z,2.80
2019-02-15T03:29:05.418Z,2.80
2019-02-15T03:31:34.913Z,2.87
2019-02-15T03:34:04.060Z,3.63
2019-02-15T03:36:51.444Z,3.77
2019-02-15T03:39:42.759Z,3.43
2019-02-15T03:42:14.649Z,3.23
2019-02-15T03:44:43.823Z,4.03
2019-02-15T03:47:14.646Z,2.63
2019-02-15T03:49:43.975Z,3.60
2019-02-15T03:52:13.153Z,2.70
2019-02-15T03:54:42.593Z,3.20
2019-02-15T03:57:12.175Z,3.63
2019-02-15T03:59:41.363Z,2.33
2019-02-15T04:02:10.427Z,3.13
2019-02-15T04:04:39.626Z,4.43
2019-02-15T04:07:09.458Z,3.03
2019-02-15T04:09:39.219Z,2.57
2019-02-15T04:12:08.524Z,2.73
2019-02-15T04:14:37.678Z,4.30
2019-02-15T04:17:06.811Z,3.27
2019-02-15T04:19:36.198Z,2.97
2019-02-15T04:22:05.703Z,3.13
2019-02-15T04:24:34.792Z,2.97
2019-02-15T04:27:04.050Z,3.07
2019-02-15T04:29:33.184Z,2.60
2019-02-15T04:32:02.426Z,3.37
2019-02-15T04:34:33.870Z,4.33
2019-02-15T04:37:03.182Z,2.87
2019-02-15T04:39:32.438Z,3.80
2019-02-15T04:42:02.098Z,4.00
2019-02-15T04:44:31.510Z,3.50
2019-02-15T04:47:00.814Z,3.70
2019-02-15T04:49:30.650Z,3.03
2019-02-15T04:52:00.060Z,3.03
2019-02-15T04:54:29.294Z,3.90
2019-02-15T04:56:58.735Z,3.97
2019-02-15T04:59:27.928Z,4.17
2019-02-15T05:01:57.188Z,4.47
2019-02-15T05:04:26.637Z,3.63
2019-02-15T05:06:56.439Z,2.93
2019-02-15T05:09:25.464Z,3.67
2019-02-15T05:11:55.315Z,5.20
2019-02-15T05:14:24.536Z,2.43
2019-02-15T05:16:53.720Z,4.13
2019-02-15T05:19:23.118Z,4.03
2019-02-15T05:21:52.206Z,3.47
2019-02-15T05:24:21.361Z,3.13
2019-02-15T05:26:50.611Z,4.00
2019-02-15T05:29:19.843Z,3.03
2019-02-15T05:31:48.957Z,3.03
2019-02-15T05:34:18.536Z,2.43
2019-02-15T05:36:47.700Z,4.07
2019-02-15T05:39:16.840Z,2.73
2019-02-15T05:41:46.778Z,2.90
2019-02-15T05:44:16.365Z,3.87
2019-02-15T05:46:45.665Z,3.87
2019-02-15T05:49:15.232Z,3.63
2019-02-15T05:51:53.726Z,3.27
2019-02-15T05:54:23.334Z,5.40
2019-02-15T05:56:52.354Z,2.83
2019-02-15T05:59:21.508Z,2.17
2019-02-15T06:01:50.954Z,4.23
2019-02-15T06:04:20.338Z,3.10
2019-02-15T06:06:49.966Z,3.50
2019-02-15T06:09:19.460Z,4.83
2019-02-15T06:11:48.453Z,2.90
2019-02-15T06:14:17.514Z,3.43
2019-02-15T06:16:46.572Z,3.87
2019-02-15T06:19:15.632Z,2.73
2019-02-15T06:21:44.701Z,3.93
2019-02-15T06:24:14.023Z,4.47
2019-02-15T06:26:43.039Z,3.50
2019-02-15T06:29:12.090Z,3.10
2019-02-15T06:31:41.735Z,3.63
2019-02-15T06:34:10.789Z,5.67
2019-02-15T06:36:39.924Z,2.60
2019-02-15T06:39:09.618Z,3.07
2019-02-15T06:41:38.684Z,4.40
2019-02-15T06:44:07.754Z,4.17
2019-02-15T06:46:38.131Z,2.93
2019-02-15T06:49:07.191Z,4.37
2019-02-15T06:51:36.245Z,3.87
2019-02-15T06:54:05.668Z,3.40
2019-02-15T06:56:34.730Z,3.73
2019-02-15T06:59:21.403Z,4.93
2019-02-15T07:02:08.182Z,4.23
2019-02-15T07:05:14.843Z,4.37
2019-02-15T07:07:44.289Z,3.00
2019-02-15T07:10:13.342Z,4.03
2019-02-15T07:12:42.272Z,3.57
2019-02-15T07:15:11.334Z,7.17
2019-02-15T07:17:40.389Z,4.07
2019-02-15T07:20:10.589Z,3.00
2019-02-15T07:22:39.650Z,3.50
2019-02-15T07:25:09.498Z,4.43
2019-02-15T07:27:38.802Z,2.97
2019-02-15T07:30:09.875Z,2.97
2019-02-15T07:32:38.926Z,4.67
2019-02-15T07:35:08.396Z,4.13
2019-02-15T07:37:37.411Z,3.40
2019-02-15T07:40:06.534Z,3.23
2019-02-15T07:42:36.230Z,3.07
2019-02-15T07:45:05.665Z,3.03
2019-02-15T07:47:34.635Z,2.90
2019-02-15T07:50:04.326Z,2.80
2019-02-15T07:52:33.379Z,2.87
2019-02-15T07:55:02.446Z,2.73
2019-02-15T07:57:31.377Z,5.30
2019-02-15T08:00:00.763Z,3.67
2019-02-15T08:02:30.232Z,2.87
2019-02-15T08:05:00.219Z,6.10
2019-02-15T08:07:29.935Z,2.53
2019-02-15T08:09:59.003Z,4.07
2019-02-15T08:12:28.004Z,3.93
2019-02-15T08:14:57.049Z,4.80
2019-02-15T08:17:26.191Z,4.47
2019-02-15T08:19:55.962Z,5.07
2019-02-15T08:22:25.099Z,5.40
2019-02-15T08:24:54.265Z,4.87
2019-02-15T08:27:23.359Z,4.67
2019-02-15T08:29:52.473Z,11.00
2019-02-15T08:32:21.553Z,10.47
2019-02-15T08:34:50.693Z,4.40
2019-02-15T08:37:19.639Z,6.90
2019-02-15T08:39:48.661Z,16.27
2019-02-15T08:42:18.179Z,2.37
2019-02-15T08:44:47.353Z,5.80
2019-02-15T08:47:16.355Z,3.93
2019-02-15T08:49:45.536Z,2.90
2019-02-15T08:52:14.571Z,3.03
2019-02-15T08:54:43.895Z,5.60
2019-02-15T08:57:13.369Z,3.93
2019-02-15T08:59:42.345Z,3.90
2019-02-15T09:02:18.694Z,2.70
2019-02-15T09:04:47.691Z,2.83
2019-02-15T09:07:17.326Z,4.07
2019-02-15T09:09:46.290Z,2.30
2019-02-15T09:12:15.338Z,3.63
2019-02-15T09:14:44.318Z,3.27
2019-02-15T09:17:13.375Z,3.77
2019-02-15T09:19:42.413Z,3.23
2019-02-15T09:22:11.883Z,4.13
2019-02-15T09:24:40.945Z,2.67
2019-02-15T09:27:32.030Z,2.70
2019-02-15T09:30:01.075Z,2.90
2019-02-15T09:32:30.142Z,5.43
2019-02-15T09:34:59.159Z,2.10
2019-02-15T09:37:28.205Z,2.77
2019-02-15T09:39:57.751Z,4.13
2019-02-15T09:42:27.163Z,4.67
2019-02-15T09:44:56.226Z,4.83
2019-02-15T09:47:25.254Z,3.10
2019-02-15T09:49:54.718Z,6.30
2019-02-15T09:52:23.758Z,4.80
2019-02-15T09:54:52.725Z,5.97
2019-02-15T09:57:22.042Z,12.03
2019-02-15T09:59:51.099Z,7.93
2019-02-15T10:02:20.162Z,4.17
2019-02-15T10:04:49.246Z,3.73
2019-02-15T10:07:19.549Z,4.73
2019-02-15T10:09:48.596Z,5.20
2019-02-15T10:12:17.636Z,4.57
2019-02-15T10:14:46.730Z,3.87
2019-02-15T10:17:15.685Z,6.60
2019-02-15T10:19:44.647Z,2.87
2019-02-15T10:22:13.901Z,6.13
2019-02-15T10:24:42.876Z,5.97
2019-02-15T10:27:11.924Z,6.40
2019-02-15T10:29:40.992Z,10.23
2019-02-15T10:32:10.040Z,6.90
2019-02-15T10:34:39.082Z,6.60
2019-02-15T10:37:08.369Z,6.10
2019-02-15T10:39:37.330Z,5.57
2019-02-15T10:42:06.445Z,5.17
2019-02-15T10:44:35.961Z,5.37
2019-02-15T10:47:13.574Z,4.40
2019-02-15T10:49:35.758Z,3.93
2019-02-15T10:52:05.402Z,3.00
2019-02-15T10:54:34.451Z,5.67
2019-02-15T10:57:03.496Z,2.63
2019-02-15T10:59:32.483Z,2.93
2019-02-15T11:02:01.512Z,3.83
2019-02-15T11:04:30.552Z,6.93
2019-02-15T11:06:59.736Z,4.30
2019-02-15T11:09:29.414Z,3.70
2019-02-15T11:11:58.500Z,7.83
2019-02-15T11:14:27.518Z,3.93
2019-02-15T11:16:56.490Z,5.40
2019-02-15T11:19:25.537Z,3.47
2019-02-15T11:21:54.748Z,1.60
2019-02-15T11:24:23.795Z,2.67
2019-02-15T11:26:52.848Z,3.53
2019-02-15T11:29:21.849Z,3.93
2019-02-15T11:31:50.884Z,4.30
2019-02-15T11:34:19.922Z,2.67
2019-02-15T11:36:48.918Z,2.60
2019-02-15T11:39:17.883Z,1.87
2019-02-15T11:41:46.855Z,3.73
2019-02-15T11:44:16.539Z,2.97
2019-02-15T11:46:45.587Z,4.80
2019-02-15T11:49:14.704Z,2.30
2019-02-15T11:51:43.983Z,2.60
2019-02-15T11:54:13.351Z,3.70
2019-02-15T11:56:42.382Z,3.07
2019-02-15T11:59:11.372Z,2.70
2019-02-15T12:01:40.508Z,4.10
2019-02-15T12:04:09.543Z,2.67
2019-02-15T12:06:39.252Z,2.30
2019-02-15T12:09:09.031Z,1.97
2019-02-15T12:11:38.078Z,2.57
2019-02-15T12:14:07.457Z,2.10
2019-02-15T12:16:38.114Z,2.47
2019-02-15T12:19:07.195Z,3.30
2019-02-15T12:21:36.249Z,2.40
2019-02-15T12:24:05.287Z,2.80
2019-02-15T12:26:34.339Z,1.43
2019-02-15T12:29:03.389Z,6.40
2019-02-15T12:31:32.358Z,3.33
2019-02-15T12:34:01.314Z,2.23
2019-02-15T12:36:30.857Z,1.80
2019-02-15T12:38:59.826Z,2.33
2019-02-15T12:41:28.880Z,2.20
2019-02-15T12:43:58.743Z,2.53
2019-02-15T12:46:27.787Z,2.43
2019-02-15T12:48:56.742Z,1.80
2019-02-15T12:51:26.023Z,3.77
2019-02-15T12:53:55.067Z,1.63
2019-02-15T12:56:24.098Z,3.33
2019-02-15T12:58:53.077Z,1.37
2019-02-15T13:01:22.040Z,4.63
2019-02-15T13:03:50.998Z,1.60
2019-02-15T13:06:28.349Z,1.40
2019-02-15T13:08:52.348Z,1.43
2019-02-15T13:11:21.402Z,3.53
2019-02-15T13:13:50.457Z,1.30
2019-02-15T13:16:19.464Z,2.30
2019-02-15T13:18:48.510Z,1.47
2019-02-15T13:21:17.551Z,2.10
2019-02-15T13:23:47.042Z,1.77
2019-02-15T13:26:16.242Z,3.17
2019-02-15T13:28:45.439Z,3.87
2019-02-15T13:31:15.423Z,3.27
2019-02-15T13:33:44.467Z,1.77
2019-02-15T13:36:14.313Z,1.73
2019-02-15T13:38:43.302Z,5.70
2019-02-15T13:41:12.357Z,2.50
2019-02-15T13:43:41.410Z,1.87
2019-02-15T13:46:10.914Z,2.20
2019-02-15T13:48:39.974Z,1.30
2019-02-15T13:51:09.023Z,2.93
2019-02-15T13:53:38.090Z,2.40
2019-02-15T13:56:07.147Z,1.80
2019-02-15T13:58:36.199Z,3.90
2019-02-15T14:01:05.809Z,1.83
2019-02-15T14:03:34.777Z,3.33
2019-02-15T14:06:03.750Z,9.00
2019-02-15T14:08:33.075Z,2.90
2019-02-15T14:11:02.574Z,1.93
2019-02-15T14:13:31.643Z,2.23
2019-02-15T14:16:00.771Z,3.63
2019-02-15T14:18:29.797Z,1.27
2019-02-15T14:20:58.855Z,1.83
2019-02-15T14:23:27.918Z,1.53
2019-02-15T14:25:57.140Z,1.67
2019-02-15T14:28:26.196Z,2.27
2019-02-15T14:30:55.311Z,5.20
2019-02-15T14:33:24.830Z,2.13
2019-02-15T14:35:53.874Z,2.87
2019-02-15T14:38:23.107Z,2.97
2019-02-15T14:40:52.090Z,2.23
2019-02-15T14:43:21.078Z,6.60
2019-02-15T14:45:50.122Z,3.33
2019-02-15T14:48:20.154Z,1.93
2019-02-15T14:50:49.254Z,1.53
2019-02-15T14:53:18.150Z,2.87
2019-02-15T14:55:47.213Z,2.70
2019-02-15T14:58:16.170Z,1.93
2019-02-15T15:00:45.222Z,4.97
2019-02-15T15:03:14.304Z,2.10
2019-02-15T15:05:43.340Z,6.23
2019-02-15T15:08:12.399Z,4.47
2019-02-15T15:10:41.598Z,1.90
2019-02-15T15:13:11.079Z,2.47
2019-02-15T15:15:40.227Z,4.30
2019-02-15T15:18:13.319Z,1.73
2019-02-15T15:20:40.169Z,1.70
2019-02-15T15:23:09.171Z,3.07
2019-02-15T15:25:38.485Z,1.97
2019-02-15T15:28:09.233Z,1.77
2019-02-15T15:30:38.326Z,1.73
2019-02-15T15:33:07.414Z,1.70
2019-02-15T15:35:36.386Z,1.93
2019-02-15T15:38:05.577Z,2.43
2019-02-15T15:40:35.530Z,2.00
2019-02-15T15:43:04.532Z,2.20
2019-02-15T15:45:33.578Z,1.83
2019-02-15T15:48:03.118Z,1.40
2019-02-15T15:50:32.251Z,1.77
2019-02-15T15:53:01.223Z,1.87
2019-02-15T15:55:30.801Z,2.17
2019-02-15T15:57:59.990Z,1.33
2019-02-15T16:00:38.416Z,4.23
2019-02-15T16:03:00.248Z,4.30
2019-02-15T16:05:29.301Z,2.47
2019-02-15T16:07:58.366Z,7.93
2019-02-15T16:10:27.448Z,1.37
2019-02-15T16:12:56.818Z,3.20
2019-02-15T16:15:26.142Z,3.43
2019-02-15T16:17:55.155Z,2.57
2019-02-15T16:20:24.211Z,2.33
2019-02-15T16:22:53.272Z,1.43
2019-02-15T16:25:22.398Z,3.77
2019-02-15T16:27:51.457Z,2.97
2019-02-15T16:30:20.575Z,2.60
2019-02-15T16:32:49.795Z,1.90
2019-02-15T16:35:20.613Z,1.43
2019-02-15T16:37:49.876Z,1.60
2019-02-15T16:40:19.116Z,1.93
2019-02-15T16:42:48.340Z,2.77
2019-02-15T16:45:17.395Z,1.57
2019-02-15T16:47:46.605Z,2.03
2019-02-15T16:50:15.646Z,5.10
2019-02-15T16:52:44.701Z,2.47
2019-02-15T16:55:17.957Z,1.80
2019-02-15T16:57:47.328Z,1.67
2019-02-15T17:00:16.579Z,12.50
2019-02-15T17:02:46.287Z,15.43
2019-02-15T17:05:15.407Z,28.23
2019-02-15T17:07:44.474Z,21.80
2019-02-15T17:10:13.559Z,30.33
2019-02-15T17:12:42.756Z,21.10
2019-02-15T17:15:12.450Z,26.33
2019-02-15T17:17:41.544Z,20.23
2019-02-15T17:20:10.536Z,18.90
2019-02-15T17:22:39.600Z,20.67
2019-02-15T17:25:09.287Z,24.60
2019-02-15T17:27:38.322Z,21.73
2019-02-15T17:30:07.940Z,25.27
2019-02-15T17:32:37.320Z,20.43
2019-02-15T17:35:06.979Z,16.90
2019-02-15T17:37:36.028Z,18.70
2019-02-15T17:40:05.914Z,11.93
2019-02-15T17:42:34.946Z,15.67
2019-02-15T17:45:04.022Z,14.77
2019-02-15T17:47:33.278Z,20.67
2019-02-15T17:50:02.367Z,15.60
2019-02-15T17:52:31.365Z,14.00
2019-02-15T17:55:00.434Z,18.00
2019-02-15T17:57:29.488Z,13.70
2019-02-15T17:59:58.705Z,11.60
2019-02-15T18:02:28.123Z,16.10
2019-02-15T18:04:57.175Z,17.17
2019-02-15T18:07:26.237Z,12.40
2019-02-15T18:09:55.225Z,15.57
2019-02-15T18:12:24.566Z,15.30
2019-02-15T18:14:53.906Z,9.13
2019-02-15T18:17:23.145Z,13.73
2019-02-15T18:19:52.262Z,11.77
2019-02-15T18:22:21.327Z,14.17
2019-02-15T18:24:50.414Z,9.40
2019-02-15T18:27:19.507Z,11.30
2019-02-15T18:29:48.558Z,12.87
2019-02-15T18:32:18.284Z,8.17
2019-02-15T18:34:47.385Z,9.90
2019-02-15T18:37:16.462Z,10.40
2019-02-15T18:39:46.256Z,10.10
2019-02-15T18:42:15.330Z,12.40
2019-02-15T18:44:44.503Z,9.80
2019-02-15T18:47:13.813Z,8.80
2019-02-15T18:49:42.902Z,14.37
2019-02-15T18:52:11.949Z,6.10
2019-02-15T18:54:41.010Z,10.60
2019-02-15T18:57:10.075Z,10.10
2019-02-15T18:59:39.155Z,21.00
2019-02-15T19:02:08.543Z,8.77
2019-02-15T19:04:37.750Z,11.53
2019-02-15T19:07:06.821Z,11.53
2019-02-15T19:09:36.240Z,9.00
2019-02-15T19:12:05.606Z,9.47
2019-02-15T19:14:35.406Z,6.70
2019-02-15T19:17:04.657Z,9.03
2019-02-15T19:19:33.712Z,10.43
2019-02-15T19:22:02.858Z,10.43
2019-02-15T19:24:32.269Z,7.43
2019-02-15T19:27:01.340Z,7.27
2019-02-15T19:29:30.382Z,9.47
2019-02-15T19:32:00.170Z,8.23
2019-02-15T19:34:29.414Z,9.83
2019-02-15T19:36:58.596Z,5.93
2019-02-15T19:39:27.721Z,7.43
2019-02-15T19:41:56.774Z,9.90
2019-02-15T19:44:25.848Z,6.93
2019-02-15T19:46:54.887Z,6.30
2019-02-15T19:49:23.874Z,6.03
2019-02-15T19:51:52.942Z,9.60
2019-02-15T19:54:21.990Z,8.50
2019-02-15T19:56:51.077Z,6.30
2019-02-15T19:59:20.275Z,5.83
2019-02-15T20:01:49.589Z,6.97
2019-02-15T20:04:18.655Z,6.90
2019-02-15T20:06:47.711Z,7.67
2019-02-15T20:09:16.775Z,7.10
2019-02-15T20:11:45.765Z,8.97
2019-02-15T20:14:14.890Z,6.17
2019-02-15T20:16:44.500Z,8.73
2019-02-15T20:19:13.550Z,6.23
2019-02-15T20:21:42.714Z,8.17
2019-02-15T20:24:11.797Z,6.47
2019-02-15T20:26:40.854Z,4.90
2019-02-15T20:29:11.530Z,7.37
2019-02-15T20:31:40.814Z,7.43
2019-02-15T20:34:09.870Z,7.47
2019-02-15T20:36:38.938Z,4.97
2019-02-15T20:39:08.734Z,5.00
2019-02-15T20:41:37.782Z,7.23
2019-02-15T20:44:06.965Z,7.43
2019-02-15T20:46:36.504Z,7.03
2019-02-15T20:49:05.561Z,5.20
2019-02-15T20:51:34.546Z,7.40
2019-02-15T20:54:03.662Z,5.50
2019-02-15T20:56:32.710Z,5.53
2019-02-15T20:59:01.776Z,7.07
2019-02-15T21:01:30.932Z,6.97
2019-02-15T21:03:59.916Z,5.83
2019-02-15T21:06:28.894Z,8.27
2019-02-15T21:08:57.893Z,13.30
2019-02-15T21:11:26.913Z,7.43
2019-02-15T21:13:56.154Z,6.17
2019-02-15T21:16:25.841Z,7.63
2019-02-15T21:18:54.898Z,8.53
2019-02-15T21:21:23.970Z,6.00
2019-02-15T21:23:53.063Z,5.87
2019-02-15T21:26:22.114Z,6.63
2019-02-15T21:28:51.163Z,6.30
2019-02-15T21:31:20.670Z,5.13
2019-02-15T21:33:49.736Z,6.07
2019-02-15T21:36:18.806Z,7.50
2019-02-15T21:38:47.955Z,8.17
2019-02-15T21:41:17.016Z,9.43
2019-02-15T21:43:46.067Z,5.37
2019-02-15T21:46:15.537Z,7.00
2019-02-15T21:48:44.602Z,15.83
2019-02-15T21:51:13.639Z,5.43
2019-02-15T21:53:42.915Z,5.43
2019-02-15T21:56:11.894Z,11.33
2019-02-15T21:58:42.762Z,7.97
2019-02-15T22:01:12.357Z,6.97
2019-02-15T22:03:41.428Z,6.93
2019-02-15T22:06:10.487Z,5.73
2019-02-15T22:08:39.606Z,8.13
2019-02-15T22:11:08.567Z,6.33
2019-02-15T22:13:37.652Z,6.47
2019-02-15T22:16:06.927Z,6.17
2019-02-15T22:18:36.714Z,4.90
2019-02-15T22:21:05.803Z,5.20
2019-02-15T22:23:34.914Z,5.37
2019-02-15T22:26:03.971Z,7.00
2019-02-15T22:28:32.958Z,6.17
2019-02-15T22:31:02.102Z,4.70
2019-02-15T22:33:31.906Z,5.43
2019-02-15T22:36:00.970Z,6.40
2019-02-15T22:38:30.519Z,5.60
2019-02-15T22:41:10.162Z,5.60
2019-02-15T22:43:39.377Z,6.37
2019-02-15T22:46:08.338Z,6.17
2019-02-15T22:48:37.397Z,7.30
2019-02-15T22:51:06.730Z,6.23
2019-02-15T22:53:35.782Z,4.77
2019-02-15T22:56:04.836Z,6.47
2019-02-15T22:58:33.867Z,5.53
2019-02-15T23:01:16.810Z,7.77
2019-02-15T23:03:45.902Z,6.00
2019-02-15T23:06:14.958Z,5.47
2019-02-15T23:08:43.926Z,6.90
2019-02-15T23:11:14.981Z,4.03
2019-02-15T23:13:44.147Z,6.67
2019-02-15T23:16:13.193Z,16.37
2019-02-15T23:18:42.368Z,6.53
2019-02-15T23:21:11.859Z,5.87
2019-02-15T23:23:40.911Z,8.37
2019-02-15T23:26:10.021Z,16.37
2019-02-15T23:28:39.050Z,5.53
2019-02-15T23:31:08.083Z,5.47
2019-02-15T23:33:37.175Z,10.63
2019-02-15T23:36:06.222Z,4.23
2019-02-15T23:38:35.259Z,5.07
2019-02-15T23:41:05.933Z,7.47
2019-02-15T23:43:34.983Z,5.73
2019-02-15T23:46:03.954Z,5.00
2019-02-15T23:48:33.199Z,8.17
2019-02-15T23:51:02.247Z,4.17
2019-02-15T23:53:31.218Z,5.13
2019-02-15T23:56:00.314Z,6.27
2019-02-15T23:58:29.357Z,6.43
